createdAt,value
2024-01-20T00:00:02.989Z,53.90
2024-01-20T00:02:29.994Z,53.00
2024-01-20T00:04:57.198Z,52.90
2024-01-20T00:07:24.407Z,53.30
2024-01-20T00:09:52.653Z,52.70
2024-01-20T00:12:19.961Z,53.20
2024-01-20T00:14:47.389Z,52.50
2024-01-20T00:17:23.530Z,52.90
2024-01-20T00:19:54.778Z,52.60
2024-01-20T00:22:23.713Z,52.60
2024-01-20T00:24:51.188Z,52.70
2024-01-20T00:27:19.297Z,52.70
2024-01-20T00:29:47.392Z,52.80
2024-01-20T00:32:16.693Z,52.90
2024-01-20T00:34:55.459Z,52.90
2024-01-20T00:37:31.270Z,53.00
2024-01-20T00:39:58.261Z,52.90
2024-01-20T00:42:25.283Z,53.30
2024-01-20T00:44:52.399Z,52.70
2024-01-20T00:47:19.417Z,52.50
2024-01-20T00:49:46.733Z,52.90
2024-01-20T00:52:16.241Z,53.50
2024-01-20T00:54:43.534Z,53.30
2024-01-20T00:57:10.981Z,53.20
2024-01-20T00:59:37.917Z,53.40
2024-01-20T01:02:05.102Z,53.00
2024-01-20T01:04:32.009Z,52.80
2024-01-20T01:06:59.587Z,52.20
2024-01-20T01:09:26.525Z,52.20
2024-01-20T01:11:53.464Z,52.50
2024-01-20T01:14:20.585Z,52.60
2024-01-20T01:16:48.877Z,53.20
2024-01-20T01:19:16.915Z,52.70
2024-01-20T01:21:43.789Z,53.50
2024-01-20T01:24:10.887Z,52.80
2024-01-20T01:26:37.970Z,53.00
2024-01-20T01:29:06.151Z,53.20
2024-01-20T01:31:33.319Z,53.10
2024-01-20T01:34:00.553Z,53.00
2024-01-20T01:36:27.532Z,52.40
2024-01-20T01:38:54.718Z,52.10
2024-01-20T01:41:21.693Z,52.30
2024-01-20T01:43:48.786Z,52.50
2024-01-20T01:46:15.934Z,52.60
2024-01-20T01:48:43.000Z,52.60
2024-01-20T01:51:10.345Z,52.80
2024-01-20T01:53:37.373Z,52.80
2024-01-20T01:56:04.592Z,52.80
2024-01-20T01:58:31.632Z,52.80
2024-01-20T02:00:58.711Z,52.80
2024-01-20T02:03:26.473Z,52.50
2024-01-20T02:05:53.702Z,52.80
2024-01-20T02:08:24.815Z,52.90
2024-01-20T02:10:51.954Z,52.50
2024-01-20T02:13:19.571Z,52.60
2024-01-20T02:15:46.590Z,52.40
2024-01-20T02:18:13.718Z,52.60
2024-01-20T02:20:40.654Z,52.60
2024-01-20T02:23:08.067Z,53.40
2024-01-20T02:25:35.080Z,52.70
2024-01-20T02:28:02.010Z,52.70
2024-01-20T02:30:29.098Z,52.80
2024-01-20T02:32:56.251Z,52.90
2024-01-20T02:35:23.391Z,51.90
2024-01-20T02:37:50.628Z,51.90
2024-01-20T02:40:17.986Z,52.10
2024-01-20T02:42:45.148Z,52.20
2024-01-20T02:45:12.330Z,52.10
2024-01-20T02:47:39.381Z,52.20
2024-01-20T02:50:07.260Z,52.20
2024-01-20T02:52:34.277Z,52.00
2024-01-20T02:55:01.257Z,51.90
2024-01-20T02:57:28.459Z,52.00
2024-01-20T02:59:55.585Z,51.50
2024-01-20T03:02:22.625Z,51.20
2024-01-20T03:04:49.623Z,51.40
2024-01-20T03:07:16.674Z,51.60
2024-01-20T03:09:43.633Z,51.80
2024-01-20T03:12:10.717Z,51.60
2024-01-20T03:14:37.859Z,51.80
2024-01-20T03:17:05.005Z,51.80
2024-01-20T03:19:32.056Z,51.70
2024-01-20T03:21:59.126Z,51.90
2024-01-20T03:24:26.135Z,51.90
2024-01-20T03:26:57.087Z,51.90
2024-01-20T03:29:25.834Z,52.00
2024-01-20T03:31:52.987Z,52.00
2024-01-20T03:34:20.419Z,51.60
2024-01-20T03:36:48.318Z,51.30
2024-01-20T03:39:15.396Z,51.40
2024-01-20T03:41:42.442Z,51.70
2024-01-20T03:44:09.455Z,51.70
2024-01-20T03:46:36.405Z,51.80
2024-01-20T03:49:04.129Z,51.80
2024-01-20T03:51:31.593Z,52.40
2024-01-20T03:53:58.807Z,51.60
2024-01-20T03:56:25.845Z,51.50
2024-01-20T03:58:52.842Z,51.60
2024-01-20T04:01:19.886Z,51.40
2024-01-20T04:03:46.959Z,51.40
2024-01-20T04:06:14.023Z,51.30
2024-01-20T04:08:41.032Z,51.70
2024-01-20T04:11:08.051Z,51.30
2024-01-20T04:13:35.156Z,52.40
2024-01-20T04:16:02.061Z,51.80
2024-01-20T04:18:29.213Z,51.60
2024-01-20T04:20:56.403Z,51.70
2024-01-20T04:23:23.361Z,51.10
2024-01-20T04:25:50.733Z,51.20
2024-01-20T04:28:17.707Z,51.30
2024-01-20T04:30:44.815Z,51.50
2024-01-20T04:33:12.207Z,51.50
2024-01-20T04:35:39.568Z,51.80
2024-01-20T04:38:06.616Z,51.60
2024-01-20T04:40:33.684Z,51.60
2024-01-20T04:43:00.641Z,51.50
2024-01-20T04:45:27.696Z,51.40
2024-01-20T04:47:54.882Z,51.40
2024-01-20T04:50:21.915Z,51.40
2024-01-20T04:52:48.859Z,51.40
2024-01-20T04:55:15.883Z,51.60
2024-01-20T04:57:42.955Z,51.50
2024-01-20T05:00:10.373Z,51.40
2024-01-20T05:02:38.250Z,51.20
2024-01-20T05:05:05.833Z,50.90
2024-01-20T05:07:32.809Z,50.80
2024-01-20T05:09:59.905Z,50.90
2024-01-20T05:12:27.379Z,51.00
2024-01-20T05:14:54.636Z,51.10
2024-01-20T05:17:21.609Z,51.10
2024-01-20T05:19:48.963Z,51.00
2024-01-20T05:22:17.721Z,50.90
2024-01-20T05:24:44.844Z,50.80
2024-01-20T05:27:12.357Z,51.10
2024-01-20T05:29:39.394Z,50.70
2024-01-20T05:32:06.470Z,50.90
2024-01-20T05:34:33.790Z,50.80
2024-01-20T05:37:00.957Z,51.00
2024-01-20T05:39:28.100Z,51.10
2024-01-20T05:41:55.623Z,51.30
2024-01-20T05:44:22.605Z,51.20
2024-01-20T05:46:49.745Z,51.10
2024-01-20T05:49:16.881Z,51.10
2024-01-20T05:51:43.927Z,51.30
2024-01-20T05:54:10.946Z,51.40
2024-01-20T05:56:38.245Z,51.50
2024-01-20T05:59:05.346Z,51.50
2024-01-20T06:01:32.501Z,51.70
2024-01-20T06:03:59.625Z,51.50
2024-01-20T06:06:26.649Z,50.80
2024-01-20T06:08:53.891Z,50.60
2024-01-20T06:11:20.928Z,51.00
2024-01-20T06:13:47.982Z,50.90
2024-01-20T06:16:15.108Z,50.80
2024-01-20T06:18:42.258Z,50.70
2024-01-20T06:21:09.512Z,51.00
2024-01-20T06:23:36.780Z,50.80
2024-01-20T06:26:04.466Z,50.60
2024-01-20T06:28:31.546Z,50.70
2024-01-20T06:30:58.627Z,50.70
2024-01-20T06:33:25.915Z,51.40
2024-01-20T06:35:53.135Z,50.70
2024-01-20T06:38:20.233Z,50.70
2024-01-20T06:40:47.431Z,50.80
2024-01-20T06:43:14.749Z,50.70
2024-01-20T06:45:43.345Z,50.70
2024-01-20T06:48:11.552Z,50.60
2024-01-20T06:50:44.325Z,50.70
2024-01-20T06:53:12.046Z,50.90
2024-01-20T06:55:40.837Z,51.00
2024-01-20T06:58:07.820Z,51.90
2024-01-20T07:00:34.895Z,51.10
2024-01-20T07:03:02.108Z,51.10
2024-01-20T07:05:29.220Z,51.00
2024-01-20T07:07:56.310Z,51.30
2024-01-20T07:10:23.363Z,51.30
2024-01-20T07:12:50.353Z,52.20
2024-01-20T07:15:17.626Z,51.20
2024-01-20T07:17:44.850Z,51.30
2024-01-20T07:20:12.386Z,51.30
2024-01-20T07:22:42.769Z,51.50
2024-01-20T07:25:10.740Z,51.50
2024-01-20T07:27:37.719Z,51.50
2024-01-20T07:30:06.317Z,51.40
2024-01-20T07:32:33.410Z,50.60
2024-01-20T07:35:00.467Z,50.40
2024-01-20T07:37:27.718Z,50.60
2024-01-20T07:39:54.898Z,50.60
2024-01-20T07:42:22.009Z,50.70
2024-01-20T07:44:49.249Z,50.70
2024-01-20T07:47:16.434Z,50.60
2024-01-20T07:49:43.801Z,50.60
2024-01-20T07:52:13.614Z,50.60
2024-01-20T07:54:41.078Z,50.90
2024-01-20T07:57:08.326Z,50.90
2024-01-20T07:59:35.562Z,50.80
2024-01-20T08:02:02.784Z,50.90
2024-01-20T08:04:29.812Z,50.90
2024-01-20T08:06:56.896Z,50.90
2024-01-20T08:09:24.040Z,51.00
2024-01-20T08:11:51.076Z,51.10
2024-01-20T08:14:19.408Z,51.20
2024-01-20T08:16:46.819Z,52.00
2024-01-20T08:19:13.939Z,51.30
2024-01-20T08:21:45.392Z,51.30
2024-01-20T08:24:22.298Z,51.50
2024-01-20T08:26:54.226Z,51.50
2024-01-20T08:29:24.108Z,51.80
2024-01-20T08:31:51.701Z,51.90
2024-01-20T08:34:26.199Z,52.40
2024-01-20T08:36:53.409Z,53.20
2024-01-20T08:39:20.906Z,52.60
2024-01-20T08:41:48.592Z,52.30
2024-01-20T08:44:19.043Z,52.50
2024-01-20T08:46:47.145Z,52.60
2024-01-20T08:49:15.068Z,52.70
2024-01-20T08:51:44.965Z,53.50
2024-01-20T08:54:12.343Z,52.80
2024-01-20T08:56:42.508Z,52.90
2024-01-20T08:59:09.854Z,53.80
2024-01-20T09:01:37.340Z,53.80
2024-01-20T09:04:09.989Z,53.40
2024-01-20T09:06:37.478Z,53.50
2024-01-20T09:09:07.159Z,53.60
2024-01-20T09:11:34.703Z,54.30
2024-01-20T09:14:06.853Z,53.80
2024-01-20T09:16:34.987Z,53.90
2024-01-20T09:19:05.621Z,54.20
2024-01-20T09:21:33.007Z,54.20
2024-01-20T09:24:02.794Z,54.10
2024-01-20T09:26:30.556Z,54.20
2024-01-20T09:28:58.897Z,54.20
2024-01-20T09:31:26.238Z,54.30
2024-01-20T09:33:53.971Z,54.30
2024-01-20T09:36:21.606Z,54.40
2024-01-20T09:38:50.202Z,54.50
2024-01-20T09:41:17.819Z,54.40
2024-01-20T09:43:46.091Z,54.50
2024-01-20T09:46:15.634Z,54.60
2024-01-20T09:48:45.055Z,54.50
2024-01-20T09:51:12.286Z,54.60
2024-01-20T09:53:40.824Z,54.70
2024-01-20T09:56:07.898Z,54.90
2024-01-20T09:58:36.633Z,55.00
2024-01-20T10:01:04.420Z,54.80
2024-01-20T10:03:31.891Z,55.60
2024-01-20T10:05:59.311Z,55.00
2024-01-20T10:08:26.697Z,55.00
2024-01-20T10:11:05.706Z,55.20
2024-01-20T10:13:33.079Z,55.20
2024-01-20T10:16:00.377Z,55.40
2024-01-20T10:18:27.420Z,55.70
2024-01-20T10:21:04.731Z,55.60
2024-01-20T10:23:34.455Z,55.70
2024-01-20T10:26:05.329Z,56.10
2024-01-20T10:28:32.414Z,55.80
2024-01-20T10:30:59.394Z,55.90
2024-01-20T10:33:26.536Z,56.00
2024-01-20T10:35:53.611Z,56.00
2024-01-20T10:38:24.001Z,56.10
2024-01-20T10:40:58.754Z,56.10
2024-01-20T10:43:28.117Z,56.10
2024-01-20T10:46:25.421Z,56.10
2024-01-20T10:48:54.727Z,56.10
2024-01-20T10:51:26.511Z,56.20
2024-01-20T10:53:53.667Z,56.20
2024-01-20T10:56:20.622Z,56.20
2024-01-20T10:58:59.799Z,56.20
2024-01-20T11:01:26.669Z,56.20
2024-01-20T11:03:53.840Z,56.30
2024-01-20T11:06:22.055Z,56.40
2024-01-20T11:08:51.145Z,56.20
2024-01-20T11:11:19.493Z,56.30
2024-01-20T11:13:48.448Z,56.30
2024-01-20T11:16:21.610Z,57.30
2024-01-20T11:18:48.767Z,56.40
2024-01-20T11:21:20.456Z,56.40
2024-01-20T11:24:00.997Z,56.40
2024-01-20T11:26:37.963Z,56.40
2024-01-20T11:29:06.912Z,56.50
2024-01-20T11:31:34.699Z,56.60
2024-01-20T11:34:07.412Z,56.60
2024-01-20T11:36:35.053Z,56.70
2024-01-20T11:39:03.675Z,56.70
2024-01-20T11:41:30.735Z,56.70
2024-01-20T11:43:57.947Z,56.70
2024-01-20T11:46:24.878Z,56.70
2024-01-20T11:48:52.928Z,56.70
2024-01-20T11:51:21.052Z,56.80
2024-01-20T11:53:48.070Z,56.80
2024-01-20T11:56:17.018Z,56.90
2024-01-20T11:58:43.946Z,56.80
2024-01-20T12:01:11.141Z,56.70
2024-01-20T12:03:38.217Z,56.70
2024-01-20T12:06:14.268Z,56.70
2024-01-20T12:08:43.637Z,56.70
2024-01-20T12:11:23.989Z,56.70
2024-01-20T12:13:51.055Z,56.70
2024-01-20T12:16:18.314Z,56.70
2024-01-20T12:18:45.597Z,56.80
2024-01-20T12:21:12.784Z,56.80
2024-01-20T12:23:39.914Z,56.90
2024-01-20T12:26:13.927Z,57.00
2024-01-20T12:28:42.276Z,57.00
2024-01-20T12:31:11.282Z,57.00
2024-01-20T12:33:38.952Z,57.00
2024-01-20T12:36:06.099Z,57.00
2024-01-20T12:38:33.082Z,57.00
2024-01-20T12:41:00.143Z,57.00
2024-01-20T12:43:27.196Z,57.00
2024-01-20T12:45:54.145Z,57.10
2024-01-20T12:48:21.293Z,57.10
2024-01-20T12:50:48.267Z,57.10
2024-01-20T12:53:15.148Z,57.00
2024-01-20T12:55:42.202Z,57.00
2024-01-20T12:58:09.167Z,56.90
2024-01-20T13:00:36.342Z,57.00
2024-01-20T13:03:03.514Z,57.10
2024-01-20T13:05:30.580Z,57.10
2024-01-20T13:07:57.696Z,57.10
2024-01-20T13:10:24.808Z,57.10
2024-01-20T13:12:51.689Z,57.10
2024-01-20T13:15:18.597Z,57.10
2024-01-20T13:17:45.596Z,57.00
2024-01-20T13:20:13.159Z,57.10
2024-01-20T13:22:40.096Z,57.20
2024-01-20T13:25:07.620Z,57.10
2024-01-20T13:27:34.782Z,57.10
2024-01-20T13:30:01.836Z,57.10
2024-01-20T13:32:28.972Z,57.10
2024-01-20T13:34:55.944Z,56.90
2024-01-20T13:37:25.163Z,56.90
2024-01-20T13:39:52.634Z,56.80
2024-01-20T13:42:19.616Z,56.80
2024-01-20T13:44:46.529Z,56.90
2024-01-20T13:47:13.467Z,56.90
2024-01-20T13:49:40.692Z,56.90
2024-01-20T13:52:08.088Z,56.90
2024-01-20T13:54:35.246Z,56.90
2024-01-20T13:57:02.246Z,56.90
2024-01-20T13:59:29.206Z,57.00
2024-01-20T14:02:08.248Z,56.90
2024-01-20T14:04:35.195Z,56.90
2024-01-20T14:07:06.191Z,56.80
2024-01-20T14:09:33.605Z,56.80
2024-01-20T14:12:00.672Z,56.60
2024-01-20T14:14:27.895Z,56.60
2024-01-20T14:16:56.458Z,56.50
2024-01-20T14:19:24.245Z,56.50
2024-01-20T14:21:51.247Z,56.60
2024-01-20T14:24:18.417Z,56.60
2024-01-20T14:26:45.350Z,56.70
2024-01-20T14:29:12.415Z,56.60
2024-01-20T14:31:49.108Z,56.50
2024-01-20T14:34:16.699Z,56.60
2024-01-20T14:36:44.739Z,56.70
2024-01-20T14:39:12.189Z,56.60
2024-01-20T14:41:39.150Z,56.40
2024-01-20T14:44:06.518Z,56.20
2024-01-20T14:46:34.550Z,56.40
2024-01-20T14:49:08.480Z,56.70
2024-01-20T14:51:36.057Z,56.30
2024-01-20T14:54:04.505Z,56.10
2024-01-20T14:56:32.563Z,56.10
2024-01-20T14:59:05.771Z,56.20
2024-01-20T15:01:34.119Z,56.20
2024-01-20T15:04:01.666Z,56.20
2024-01-20T15:06:29.965Z,56.20
2024-01-20T15:08:57.138Z,56.20
2024-01-20T15:11:24.315Z,56.20
2024-01-20T15:13:51.238Z,56.20
2024-01-20T15:16:18.280Z,56.10
2024-01-20T15:18:45.347Z,56.10
2024-01-20T15:21:12.398Z,56.20
2024-01-20T15:23:39.502Z,56.20
2024-01-20T15:26:06.508Z,56.20
2024-01-20T15:28:33.663Z,56.40
2024-01-20T15:31:00.637Z,56.40
2024-01-20T15:33:27.729Z,56.30
2024-01-20T15:35:54.898Z,56.30
2024-01-20T15:38:21.844Z,56.30
2024-01-20T15:40:48.750Z,55.70
2024-01-20T15:43:15.691Z,55.20
2024-01-20T15:45:42.788Z,55.10
2024-01-20T15:48:10.271Z,55.30
2024-01-20T15:50:37.388Z,55.40
2024-01-20T15:53:04.491Z,55.30
2024-01-20T15:55:31.418Z,54.90
2024-01-20T15:57:58.575Z,54.80
2024-01-20T16:00:26.061Z,54.90
2024-01-20T16:02:53.660Z,55.10
2024-01-20T16:05:20.829Z,54.90
2024-01-20T16:07:47.790Z,54.70
2024-01-20T16:10:14.749Z,54.70
2024-01-20T16:12:41.916Z,54.90
2024-01-20T16:15:12.230Z,55.00
2024-01-20T16:17:41.490Z,54.90
2024-01-20T16:20:10.017Z,54.80
2024-01-20T16:22:36.970Z,54.50
2024-01-20T16:25:04.301Z,54.50
2024-01-20T16:27:31.276Z,54.50
2024-01-20T16:29:58.213Z,54.30
2024-01-20T16:32:25.499Z,54.40
2024-01-20T16:34:52.728Z,54.40
2024-01-20T16:37:19.948Z,54.20
2024-01-20T16:39:48.831Z,54.00
2024-01-20T16:42:15.890Z,54.00
2024-01-20T16:44:42.853Z,53.60
2024-01-20T16:47:11.021Z,53.70
2024-01-20T16:49:38.183Z,53.80
2024-01-20T16:52:07.479Z,53.80
2024-01-20T16:54:34.893Z,53.80
2024-01-20T16:57:02.300Z,53.80
2024-01-20T16:59:30.622Z,53.90
2024-01-20T17:01:57.917Z,53.90
2024-01-20T17:04:28.089Z,54.00
2024-01-20T17:06:55.346Z,54.00
2024-01-20T17:09:22.414Z,54.00
2024-01-20T17:11:49.422Z,53.90
2024-01-20T17:14:20.569Z,53.60
2024-01-20T17:16:48.213Z,53.20
2024-01-20T17:19:15.602Z,53.20
2024-01-20T17:21:42.634Z,53.30
2024-01-20T17:24:10.062Z,53.30
2024-01-20T17:26:37.272Z,53.40
2024-01-20T17:29:04.380Z,53.50
2024-01-20T17:31:35.027Z,53.50
2024-01-20T17:34:02.502Z,53.40
2024-01-20T17:36:29.679Z,53.60
2024-01-20T17:39:00.006Z,53.60
2024-01-20T17:41:26.988Z,53.70
2024-01-20T17:43:54.135Z,53.40
2024-01-20T17:46:21.241Z,53.10
2024-01-20T17:48:49.644Z,53.00
2024-01-20T17:51:16.709Z,53.10
2024-01-20T17:53:43.832Z,53.30
2024-01-20T17:56:10.962Z,53.30
2024-01-20T17:58:37.949Z,53.30
2024-01-20T18:01:08.490Z,53.30
2024-01-20T18:03:37.043Z,53.10
2024-01-20T18:06:04.663Z,53.10
2024-01-20T18:08:31.843Z,53.00
2024-01-20T18:10:58.766Z,53.10
2024-01-20T18:13:28.118Z,52.90
2024-01-20T18:15:55.211Z,53.10
2024-01-20T18:18:22.432Z,52.90
2024-01-20T18:20:49.602Z,53.30
2024-01-20T18:23:17.002Z,53.00
2024-01-20T18:25:44.048Z,52.70
2024-01-20T18:28:10.908Z,52.60
2024-01-20T18:30:39.230Z,52.50
2024-01-20T18:33:08.401Z,52.50
2024-01-20T18:35:35.614Z,52.50
2024-01-20T18:38:03.034Z,52.70
2024-01-20T18:40:30.004Z,52.80
2024-01-20T18:42:57.062Z,52.90
2024-01-20T18:45:24.313Z,52.90
2024-01-20T18:47:51.316Z,52.90
2024-01-20T18:50:18.428Z,53.00
2024-01-20T18:52:47.732Z,53.10
2024-01-20T18:55:15.152Z,53.00
2024-01-20T18:57:42.360Z,52.80
2024-01-20T19:00:09.906Z,52.50
2024-01-20T19:02:36.972Z,52.50
2024-01-20T19:05:04.465Z,52.50
2024-01-20T19:07:31.494Z,53.10
2024-01-20T19:09:58.538Z,52.50
2024-01-20T19:12:25.522Z,52.30
2024-01-20T19:14:52.528Z,52.00
2024-01-20T19:17:19.693Z,52.00
2024-01-20T19:19:46.879Z,52.00
2024-01-20T19:22:14.052Z,52.20
2024-01-20T19:24:41.152Z,51.70
2024-01-20T19:27:11.056Z,51.80
2024-01-20T19:29:38.342Z,51.80
2024-01-20T19:32:05.867Z,52.10
2024-01-20T19:34:33.222Z,52.30
2024-01-20T19:37:00.518Z,52.50
2024-01-20T19:39:27.478Z,52.40
2024-01-20T19:41:54.460Z,52.40
2024-01-20T19:44:24.079Z,52.40
2024-01-20T19:46:51.064Z,52.30
2024-01-20T19:49:22.886Z,52.30
2024-01-20T19:51:51.644Z,52.30
2024-01-20T19:54:18.826Z,52.30
2024-01-20T19:56:46.029Z,52.30
2024-01-20T19:59:14.537Z,52.40
2024-01-20T20:01:44.938Z,52.60
2024-01-20T20:04:18.638Z,52.50
2024-01-20T20:06:49.849Z,52.30
2024-01-20T20:09:17.709Z,52.00
2024-01-20T20:11:44.750Z,52.00
2024-01-20T20:14:11.895Z,52.00
2024-01-20T20:16:40.630Z,52.00
2024-01-20T20:19:07.824Z,51.70
2024-01-20T20:21:35.238Z,51.70
2024-01-20T20:24:02.241Z,51.80
2024-01-20T20:26:29.473Z,51.70
2024-01-20T20:28:56.422Z,51.50
2024-01-20T20:31:25.928Z,51.50
2024-01-20T20:33:53.157Z,51.70
2024-01-20T20:36:20.630Z,51.70
2024-01-20T20:38:47.869Z,51.80
2024-01-20T20:41:16.048Z,51.70
2024-01-20T20:43:43.583Z,51.70
2024-01-20T20:46:11.402Z,51.70
2024-01-20T20:48:38.463Z,51.70
2024-01-20T20:51:05.628Z,51.70
2024-01-20T20:53:32.615Z,51.70
2024-01-20T20:55:59.677Z,51.70
2024-01-20T20:58:26.648Z,51.70
2024-01-20T21:00:53.758Z,51.40
2024-01-20T21:03:22.164Z,51.70
2024-01-20T21:05:49.399Z,51.70
2024-01-20T21:08:16.966Z,52.10
2024-01-20T21:10:43.941Z,51.60
2024-01-20T21:13:11.544Z,51.60
2024-01-20T21:15:43.557Z,51.90
2024-01-20T21:18:10.669Z,51.60
2024-01-20T21:20:37.644Z,51.60
2024-01-20T21:23:04.945Z,51.60
2024-01-20T21:25:31.960Z,51.60
2024-01-20T21:27:58.944Z,51.40
2024-01-20T21:30:28.429Z,51.30
2024-01-20T21:32:55.948Z,51.20
2024-01-20T21:35:23.068Z,51.30
2024-01-20T21:37:50.066Z,51.10
2024-01-20T21:40:17.043Z,51.60
2024-01-20T21:42:44.109Z,51.20
2024-01-20T21:45:11.468Z,51.10
2024-01-20T21:47:38.557Z,51.10
2024-01-20T21:50:06.598Z,51.10
2024-01-20T21:52:33.588Z,51.10
2024-01-20T21:55:02.876Z,51.20
2024-01-20T21:57:30.064Z,51.30
2024-01-20T21:59:57.127Z,51.30
2024-01-20T22:02:24.256Z,52.20
2024-01-20T22:04:51.198Z,51.50
2024-01-20T22:07:18.108Z,51.60
2024-01-20T22:09:45.328Z,51.60
2024-01-20T22:12:12.289Z,51.70
2024-01-20T22:14:39.254Z,51.70
2024-01-20T22:17:06.575Z,51.70
2024-01-20T22:19:34.237Z,51.70
2024-01-20T22:22:01.385Z,51.90
2024-01-20T22:24:28.356Z,51.80
2024-01-20T22:26:55.316Z,51.60
2024-01-20T22:29:30.741Z,51.60
2024-01-20T22:31:59.332Z,51.90
2024-01-20T22:34:32.575Z,51.80
2024-01-20T22:37:00.533Z,51.80
2024-01-20T22:39:28.497Z,51.30
2024-01-20T22:41:55.669Z,51.00
2024-01-20T22:44:22.588Z,50.90
2024-01-20T22:46:51.025Z,51.20
2024-01-20T22:49:18.201Z,51.20
2024-01-20T22:51:45.408Z,51.10
2024-01-20T22:54:14.987Z,51.10
2024-01-20T22:56:42.191Z,51.10
2024-01-20T22:59:09.181Z,50.90
2024-01-20T23:01:36.223Z,51.00
2024-01-20T23:04:03.285Z,51.30
2024-01-20T23:06:31.253Z,51.30
2024-01-20T23:08:58.326Z,51.30
2024-01-20T23:11:25.278Z,51.30
2024-01-20T23:13:52.249Z,51.30
2024-01-20T23:16:19.106Z,51.30
2024-01-20T23:18:46.088Z,51.40
2024-01-20T23:21:13.296Z,51.90
2024-01-20T23:23:40.304Z,51.00
2024-01-20T23:26:07.213Z,50.80
2024-01-20T23:28:34.249Z,50.80
2024-01-20T23:31:01.255Z,50.90
2024-01-20T23:33:28.430Z,51.10
2024-01-20T23:35:55.541Z,51.00
2024-01-20T23:38:22.545Z,51.00
2024-01-20T23:40:49.603Z,51.00
2024-01-20T23:43:16.828Z,51.20
2024-01-20T23:45:43.769Z,51.20
2024-01-20T23:48:11.057Z,51.10
2024-01-20T23:50:39.193Z,51.20
2024-01-20T23:53:06.693Z,51.10
2024-01-20T23:55:33.672Z,51.10
2024-01-20T23:58:00.623Z,51.20
